sensor_id;sensor_type;location;lat;lon;timestamp;pressure;altitude;pressure_sealevel;temperature;humidity
21574;BME280;10948;48.706;9.258;2023-06-14T00:00:42;97248.19;;;14.38;72.33
21574;BME280;10948;48.706;9.258;2023-06-14T00:03:09;97249.75;;;14.29;72.47
21574;BME280;10948;48.706;9.258;2023-06-14T00:05:42;97253.19;;;15.01;70.13
21574;BME280;10948;48.706;9.258;2023-06-14T00:08:08;97254.88;;;15.02;68.59
21574;BME280;10948;48.706;9.258;2023-06-14T00:10:34;97259.75;;;14.86;68.36
21574;BME280;10948;48.706;9.258;2023-06-14T00:13:01;97250.41;;;14.42;70.57
21574;BME280;10948;48.706;9.258;2023-06-14T00:15:26;97253.22;;;14.50;70.80
21574;BME280;10948;48.706;9.258;2023-06-14T00:17:52;97241.59;;;14.43;70.78
21574;BME280;10948;48.706;9.258;2023-06-14T00:20:17;97251.88;;;14.04;73.78
21574;BME280;10948;48.706;9.258;2023-06-14T00:22:42;97242.50;;;13.70;74.62
21574;BME280;10948;48.706;9.258;2023-06-14T00:25:07;97251.34;;;14.21;72.12
21574;BME280;10948;48.706;9.258;2023-06-14T00:27:33;97244.53;;;14.50;71.79
21574;BME280;10948;48.706;9.258;2023-06-14T00:29:58;97248.19;;;14.06;72.93
21574;BME280;10948;48.706;9.258;2023-06-14T00:32:23;97245.75;;;14.46;71.20
21574;BME280;10948;48.706;9.258;2023-06-14T00:34:50;97252.94;;;14.12;72.76
21574;BME280;10948;48.706;9.258;2023-06-14T00:37:16;97251.78;;;14.05;73.73
21574;BME280;10948;48.706;9.258;2023-06-14T00:39:41;97249.69;;;14.20;73.78
21574;BME280;10948;48.706;9.258;2023-06-14T00:42:06;97244.81;;;14.15;74.36
21574;BME280;10948;48.706;9.258;2023-06-14T00:44:32;97241.72;;;13.90;74.70
21574;BME280;10948;48.706;9.258;2023-06-14T00:46:57;97238.31;;;14.10;73.80
21574;BME280;10948;48.706;9.258;2023-06-14T00:49:22;97235.06;;;13.86;74.37
21574;BME280;10948;48.706;9.258;2023-06-14T00:51:48;97246.34;;;13.55;76.91
21574;BME280;10948;48.706;9.258;2023-06-14T00:54:13;97240.72;;;14.33;75.19
21574;BME280;10948;48.706;9.258;2023-06-14T00:56:38;97241.63;;;13.49;76.27
21574;BME280;10948;48.706;9.258;2023-06-14T00:59:04;97244.03;;;13.19;78.29
21574;BME280;10948;48.706;9.258;2023-06-14T01:01:30;97250.94;;;12.98;81.36
21574;BME280;10948;48.706;9.258;2023-06-14T01:03:58;97250.16;;;13.51;78.97
21574;BME280;10948;48.706;9.258;2023-06-14T01:06:27;97245.84;;;13.61;78.08
21574;BME280;10948;48.706;9.258;2023-06-14T01:11:50;97249.22;;;13.41;79.73
21574;BME280;10948;48.706;9.258;2023-06-14T01:14:18;97257.31;;;13.27;78.92
21574;BME280;10948;48.706;9.258;2023-06-14T01:16:44;97253.25;;;13.56;76.80
21574;BME280;10948;48.706;9.258;2023-06-14T01:19:11;97249.00;;;13.22;77.65
21574;BME280;10948;48.706;9.258;2023-06-14T01:21:38;97260.66;;;13.07;80.65
21574;BME280;10948;48.706;9.258;2023-06-14T01:24:07;97245.34;;;13.67;77.88
21574;BME280;10948;48.706;9.258;2023-06-14T01:26:32;97253.34;;;13.65;77.42
21574;BME280;10948;48.706;9.258;2023-06-14T01:28:57;97249.13;;;13.31;77.37
21574;BME280;10948;48.706;9.258;2023-06-14T01:31:23;97254.72;;;13.38;77.93
21574;BME280;10948;48.706;9.258;2023-06-14T01:33:50;97249.72;;;12.91;79.13
21574;BME280;10948;48.706;9.258;2023-06-14T01:36:16;97259.59;;;12.87;81.86
21574;BME280;10948;48.706;9.258;2023-06-14T01:38:42;97256.34;;;12.62;82.90
21574;BME280;10948;48.706;9.258;2023-06-14T01:41:09;97256.59;;;12.92;80.79
21574;BME280;10948;48.706;9.258;2023-06-14T01:43:34;97258.28;;;13.15;79.79
21574;BME280;10948;48.706;9.258;2023-06-14T01:46:00;97252.69;;;13.30;78.76
21574;BME280;10948;48.706;9.258;2023-06-14T01:48:27;97253.56;;;13.09;78.67
21574;BME280;10948;48.706;9.258;2023-06-14T01:50:52;97247.88;;;12.36;82.36
21574;BME280;10948;48.706;9.258;2023-06-14T01:53:17;97251.19;;;12.38;84.75
21574;BME280;10948;48.706;9.258;2023-06-14T01:55:42;97251.13;;;12.51;83.41
21574;BME280;10948;48.706;9.258;2023-06-14T01:58:08;97262.09;;;13.11;81.68
21574;BME280;10948;48.706;9.258;2023-06-14T02:00:33;97258.53;;;13.23;79.10
21574;BME280;10948;48.706;9.258;2023-06-14T02:02:58;97268.72;;;12.93;81.33
21574;BME280;10948;48.706;9.258;2023-06-14T02:05:24;97259.66;;;12.53;81.83
21574;BME280;10948;48.706;9.258;2023-06-14T02:07:50;97258.63;;;12.21;83.40
21574;BME280;10948;48.706;9.258;2023-06-14T02:10:15;97254.09;;;12.12;86.44
21574;BME280;10948;48.706;9.258;2023-06-14T02:12:42;97261.34;;;11.85;86.58
21574;BME280;10948;48.706;9.258;2023-06-14T02:15:08;97262.47;;;12.39;84.78
21574;BME280;10948;48.706;9.258;2023-06-14T02:17:34;97261.72;;;12.82;82.73
21574;BME280;10948;48.706;9.258;2023-06-14T02:19:59;97263.97;;;12.87;80.60
21574;BME280;10948;48.706;9.258;2023-06-14T02:22:25;97261.41;;;12.98;79.59
21574;BME280;10948;48.706;9.258;2023-06-14T02:24:50;97262.22;;;12.42;81.29
21574;BME280;10948;48.706;9.258;2023-06-14T02:27:16;97263.84;;;12.10;84.05
21574;BME280;10948;48.706;9.258;2023-06-14T02:29:42;97255.56;;;12.27;82.85
21574;BME280;10948;48.706;9.258;2023-06-14T02:32:07;97252.53;;;12.44;83.17
21574;BME280;10948;48.706;9.258;2023-06-14T02:34:33;97257.69;;;12.22;82.18
21574;BME280;10948;48.706;9.258;2023-06-14T02:36:58;97260.88;;;12.14;83.79
21574;BME280;10948;48.706;9.258;2023-06-14T02:39:24;97264.84;;;12.31;84.67
21574;BME280;10948;48.706;9.258;2023-06-14T02:41:50;97260.88;;;12.25;84.32
21574;BME280;10948;48.706;9.258;2023-06-14T02:44:17;97259.16;;;12.48;83.76
21574;BME280;10948;48.706;9.258;2023-06-14T02:46:42;97255.09;;;12.33;82.07
21574;BME280;10948;48.706;9.258;2023-06-14T02:49:08;97258.19;;;12.27;84.65
21574;BME280;10948;48.706;9.258;2023-06-14T02:51:34;97254.97;;;12.23;84.16
21574;BME280;10948;48.706;9.258;2023-06-14T02:53:59;97258.13;;;12.05;84.69
21574;BME280;10948;48.706;9.258;2023-06-14T02:56:24;97253.19;;;12.24;84.96
21574;BME280;10948;48.706;9.258;2023-06-14T02:58:51;97252.66;;;12.08;84.35
21574;BME280;10948;48.706;9.258;2023-06-14T03:01:16;97258.13;;;12.05;84.68
21574;BME280;10948;48.706;9.258;2023-06-14T03:03:41;97260.03;;;12.14;85.38
21574;BME280;10948;48.706;9.258;2023-06-14T03:06:07;97259.22;;;12.24;84.80
21574;BME280;10948;48.706;9.258;2023-06-14T03:08:33;97255.91;;;12.22;84.85
21574;BME280;10948;48.706;9.258;2023-06-14T03:11:03;97255.81;;;12.35;84.81
21574;BME280;10948;48.706;9.258;2023-06-14T03:13:30;97262.03;;;12.45;83.68
21574;BME280;10948;48.706;9.258;2023-06-14T03:15:57;97264.13;;;12.40;83.88
21574;BME280;10948;48.706;9.258;2023-06-14T03:18:22;97260.31;;;11.87;84.26
21574;BME280;10948;48.706;9.258;2023-06-14T03:20:50;97272.88;;;12.17;85.93
21574;BME280;10948;48.706;9.258;2023-06-14T03:23:16;97266.78;;;11.82;84.12
21574;BME280;10948;48.706;9.258;2023-06-14T03:25:42;97270.22;;;12.06;84.48
21574;BME280;10948;48.706;9.258;2023-06-14T03:28:07;97275.19;;;12.09;83.83
21574;BME280;10948;48.706;9.258;2023-06-14T03:30:33;97280.53;;;12.07;83.50
21574;BME280;10948;48.706;9.258;2023-06-14T03:32:58;97288.78;;;11.42;87.78
21574;BME280;10948;48.706;9.258;2023-06-14T03:35:26;97285.53;;;11.87;88.81
21574;BME280;10948;48.706;9.258;2023-06-14T03:37:51;97288.50;;;12.17;87.95
21574;BME280;10948;48.706;9.258;2023-06-14T03:40:18;97286.09;;;12.03;86.02
21574;BME280;10948;48.706;9.258;2023-06-14T03:42:43;97290.47;;;12.37;85.20
21574;BME280;10948;48.706;9.258;2023-06-14T03:45:09;97286.66;;;12.41;85.40
21574;BME280;10948;48.706;9.258;2023-06-14T03:47:34;97290.31;;;12.27;82.73
21574;BME280;10948;48.706;9.258;2023-06-14T03:50:01;97295.16;;;12.21;82.81
21574;BME280;10948;48.706;9.258;2023-06-14T03:52:27;97298.59;;;12.21;84.70
21574;BME280;10948;48.706;9.258;2023-06-14T03:54:52;97306.28;;;12.57;84.23
21574;BME280;10948;48.706;9.258;2023-06-14T03:57:18;97303.84;;;11.98;85.19
21574;BME280;10948;48.706;9.258;2023-06-14T03:59:44;97310.50;;;12.36;85.15
21574;BME280;10948;48.706;9.258;2023-06-14T04:02:09;97309.84;;;12.11;85.25
21574;BME280;10948;48.706;9.258;2023-06-14T04:04:35;97307.84;;;12.25;84.47
21574;BME280;10948;48.706;9.258;2023-06-14T04:07:00;97314.66;;;12.73;82.39
21574;BME280;10948;48.706;9.258;2023-06-14T04:09:25;97308.41;;;13.20;80.67
21574;BME280;10948;48.706;9.258;2023-06-14T04:11:54;97320.22;;;12.80;79.82
21574;BME280;10948;48.706;9.258;2023-06-14T04:14:19;97315.75;;;13.15;80.50
21574;BME280;10948;48.706;9.258;2023-06-14T04:16:46;97317.84;;;12.77;80.75
21574;BME280;10948;48.706;9.258;2023-06-14T04:19:11;97320.16;;;13.36;80.48
21574;BME280;10948;48.706;9.258;2023-06-14T04:21:36;97321.13;;;13.46;78.79
21574;BME280;10948;48.706;9.258;2023-06-14T04:24:02;97323.13;;;13.32;78.84
21574;BME280;10948;48.706;9.258;2023-06-14T04:26:27;97317.97;;;13.85;77.41
21574;BME280;10948;48.706;9.258;2023-06-14T04:28:55;97326.13;;;14.03;76.30
21574;BME280;10948;48.706;9.258;2023-06-14T04:31:21;97317.97;;;14.17;76.19
21574;BME280;10948;48.706;9.258;2023-06-14T04:33:50;97323.97;;;14.39;75.10
21574;BME280;10948;48.706;9.258;2023-06-14T04:36:18;97332.84;;;14.48;76.21
21574;BME280;10948;48.706;9.258;2023-06-14T04:38:43;97322.50;;;14.67;75.29
21574;BME280;10948;48.706;9.258;2023-06-14T04:41:10;97319.84;;;14.98;73.25
21574;BME280;10948;48.706;9.258;2023-06-14T04:43:36;97319.31;;;14.84;73.53
21574;BME280;10948;48.706;9.258;2023-06-14T04:46:05;97319.06;;;14.46;74.77
21574;BME280;10948;48.706;9.258;2023-06-14T04:48:35;97326.72;;;14.99;74.99
21574;BME280;10948;48.706;9.258;2023-06-14T04:51:01;97335.06;;;15.34;73.09
21574;BME280;10948;48.706;9.258;2023-06-14T04:53:29;97334.25;;;15.43;72.15
21574;BME280;10948;48.706;9.258;2023-06-14T04:55:54;97344.34;;;15.78;70.70
21574;BME280;10948;48.706;9.258;2023-06-14T04:58:21;97346.31;;;15.95;69.75
21574;BME280;10948;48.706;9.258;2023-06-14T05:00:46;97349.13;;;16.22;68.98
21574;BME280;10948;48.706;9.258;2023-06-14T05:03:12;97352.97;;;16.18;68.52
21574;BME280;10948;48.706;9.258;2023-06-14T05:05:41;97357.38;;;16.08;67.80
21574;BME280;10948;48.706;9.258;2023-06-14T05:08:07;97357.09;;;16.01;68.60
21574;BME280;10948;48.706;9.258;2023-06-14T05:10:33;97365.88;;;16.59;69.39
21574;BME280;10948;48.706;9.258;2023-06-14T05:13:00;97359.78;;;16.77;68.05
21574;BME280;10948;48.706;9.258;2023-06-14T05:15:25;97367.06;;;17.11;67.93
21574;BME280;10948;48.706;9.258;2023-06-14T05:17:51;97361.25;;;17.17;67.10
21574;BME280;10948;48.706;9.258;2023-06-14T05:20:20;97366.72;;;17.43;66.66
21574;BME280;10948;48.706;9.258;2023-06-14T05:22:45;97360.59;;;17.61;65.16
21574;BME280;10948;48.706;9.258;2023-06-14T05:25:11;97360.69;;;17.96;64.99
21574;BME280;10948;48.706;9.258;2023-06-14T05:27:38;97353.88;;;17.76;62.81
21574;BME280;10948;48.706;9.258;2023-06-14T05:30:06;97359.41;;;17.73;62.14
21574;BME280;10948;48.706;9.258;2023-06-14T05:32:32;97362.47;;;17.69;62.56
21574;BME280;10948;48.706;9.258;2023-06-14T05:34:57;97361.41;;;18.60;60.61
21574;BME280;10948;48.706;9.258;2023-06-14T05:37:22;97362.63;;;18.21;60.25
21574;BME280;10948;48.706;9.258;2023-06-14T05:39:47;97355.00;;;19.23;59.55
21574;BME280;10948;48.706;9.258;2023-06-14T05:42:12;97357.16;;;18.85;58.47
21574;BME280;10948;48.706;9.258;2023-06-14T05:44:38;97364.09;;;19.11;57.57
21574;BME280;10948;48.706;9.258;2023-06-14T05:47:03;97362.88;;;19.74;58.65
21574;BME280;10948;48.706;9.258;2023-06-14T05:49:29;97361.41;;;20.13;56.04
21574;BME280;10948;48.706;9.258;2023-06-14T05:51:54;97361.69;;;20.84;54.68
21574;BME280;10948;48.706;9.258;2023-06-14T05:54:19;97364.41;;;22.17;51.46
21574;BME280;10948;48.706;9.258;2023-06-14T05:56:45;97352.47;;;22.96;49.26
21574;BME280;10948;48.706;9.258;2023-06-14T05:59:10;97357.34;;;24.31;46.88
21574;BME280;10948;48.706;9.258;2023-06-14T06:01:36;97361.88;;;24.16;45.96
21574;BME280;10948;48.706;9.258;2023-06-14T06:04:01;97348.88;;;24.42;44.60
21574;BME280;10948;48.706;9.258;2023-06-14T06:06:27;97359.59;;;24.84;44.91
21574;BME280;10948;48.706;9.258;2023-06-14T06:08:52;97356.97;;;25.11;44.10
21574;BME280;10948;48.706;9.258;2023-06-14T06:11:18;97360.75;;;24.25;45.09
21574;BME280;10948;48.706;9.258;2023-06-14T06:13:43;97369.34;;;23.26;46.68
21574;BME280;10948;48.706;9.258;2023-06-14T06:16:08;97366.41;;;22.15;47.87
21574;BME280;10948;48.706;9.258;2023-06-14T06:18:34;97368.38;;;21.82;49.69
21574;BME280;10948;48.706;9.258;2023-06-14T06:20:59;97368.88;;;22.16;50.43
21574;BME280;10948;48.706;9.258;2023-06-14T06:23:25;97375.16;;;21.85;49.46
21574;BME280;10948;48.706;9.258;2023-06-14T06:25:50;97370.31;;;22.27;49.41
21574;BME280;10948;48.706;9.258;2023-06-14T06:28:17;97368.25;;;22.14;46.96
21574;BME280;10948;48.706;9.258;2023-06-14T06:30:42;97370.88;;;22.14;46.88
21574;BME280;10948;48.706;9.258;2023-06-14T06:33:07;97369.56;;;22.94;45.93
21574;BME280;10948;48.706;9.258;2023-06-14T06:35:33;97369.22;;;22.74;46.86
21574;BME280;10948;48.706;9.258;2023-06-14T06:37:58;97370.97;;;22.82;45.97
21574;BME280;10948;48.706;9.258;2023-06-14T06:40:23;97366.66;;;22.66;45.75
21574;BME280;10948;48.706;9.258;2023-06-14T06:42:49;97366.84;;;23.02;46.18
21574;BME280;10948;48.706;9.258;2023-06-14T06:45:15;97366.59;;;22.74;44.91
21574;BME280;10948;48.706;9.258;2023-06-14T06:47:40;97371.69;;;22.98;45.52
21574;BME280;10948;48.706;9.258;2023-06-14T06:50:05;97384.78;;;23.00;44.73
21574;BME280;10948;48.706;9.258;2023-06-14T06:52:32;97389.97;;;23.38;44.64
21574;BME280;10948;48.706;9.258;2023-06-14T06:54:57;97385.97;;;23.85;44.94
21574;BME280;10948;48.706;9.258;2023-06-14T06:57:23;97391.13;;;24.16;44.52
21574;BME280;10948;48.706;9.258;2023-06-14T06:59:49;97392.19;;;23.78;43.28
21574;BME280;10948;48.706;9.258;2023-06-14T07:02:14;97402.84;;;24.36;43.61
21574;BME280;10948;48.706;9.258;2023-06-14T07:04:40;97397.97;;;23.53;42.96
21574;BME280;10948;48.706;9.258;2023-06-14T07:07:06;97398.25;;;24.30;42.86
21574;BME280;10948;48.706;9.258;2023-06-14T07:09:31;97404.09;;;24.69;42.30
21574;BME280;10948;48.706;9.258;2023-06-14T07:11:57;97398.38;;;25.28;42.43
21574;BME280;10948;48.706;9.258;2023-06-14T07:14:22;97409.97;;;24.50;41.14
21574;BME280;10948;48.706;9.258;2023-06-14T07:16:48;97409.78;;;25.01;40.79
21574;BME280;10948;48.706;9.258;2023-06-14T07:19:14;97401.50;;;25.38;41.95
21574;BME280;10948;48.706;9.258;2023-06-14T07:21:40;97413.53;;;26.10;40.38
21574;BME280;10948;48.706;9.258;2023-06-14T07:24:05;97408.19;;;27.63;38.55
21574;BME280;10948;48.706;9.258;2023-06-14T07:26:31;97416.44;;;27.94;36.21
21574;BME280;10948;48.706;9.258;2023-06-14T07:28:57;97421.19;;;32.28;32.34
21574;BME280;10948;48.706;9.258;2023-06-14T07:31:22;97425.88;;;33.39;31.09
21574;BME280;10948;48.706;9.258;2023-06-14T07:33:48;97425.91;;;32.83;30.60
21574;BME280;10948;48.706;9.258;2023-06-14T07:36:14;97429.31;;;32.79;30.73
21574;BME280;10948;48.706;9.258;2023-06-14T07:38:39;97428.38;;;32.62;30.63
21574;BME280;10948;48.706;9.258;2023-06-14T07:41:07;97437.03;;;34.85;29.42
21574;BME280;10948;48.706;9.258;2023-06-14T07:43:32;97423.72;;;33.53;30.33
21574;BME280;10948;48.706;9.258;2023-06-14T07:45:58;97432.56;;;34.52;30.52
21574;BME280;10948;48.706;9.258;2023-06-14T07:48:23;97443.13;;;35.18;29.54
21574;BME280;10948;48.706;9.258;2023-06-14T07:50:49;97426.34;;;36.11;28.21
21574;BME280;10948;48.706;9.258;2023-06-14T07:53:14;97437.66;;;35.66;28.67
21574;BME280;10948;48.706;9.258;2023-06-14T07:55:39;97434.19;;;36.02;28.06
21574;BME280;10948;48.706;9.258;2023-06-14T07:58:07;97437.94;;;35.38;28.53
21574;BME280;10948;48.706;9.258;2023-06-14T08:00:32;97439.94;;;37.09;27.55
21574;BME280;10948;48.706;9.258;2023-06-14T08:02:58;97433.81;;;36.25;28.22
21574;BME280;10948;48.706;9.258;2023-06-14T08:05:24;97433.00;;;36.25;27.47
21574;BME280;10948;48.706;9.258;2023-06-14T08:07:51;97435.50;;;36.36;27.23
21574;BME280;10948;48.706;9.258;2023-06-14T08:10:16;97438.47;;;36.86;27.79
21574;BME280;10948;48.706;9.258;2023-06-14T08:12:41;97448.19;;;37.39;27.42
21574;BME280;10948;48.706;9.258;2023-06-14T08:15:07;97437.41;;;36.92;27.54
21574;BME280;10948;48.706;9.258;2023-06-14T08:17:33;97445.25;;;38.10;26.19
21574;BME280;10948;48.706;9.258;2023-06-14T08:19:58;97441.53;;;37.00;26.39
21574;BME280;10948;48.706;9.258;2023-06-14T08:22:24;97448.06;;;38.94;25.36
21574;BME280;10948;48.706;9.258;2023-06-14T08:24:50;97452.22;;;38.66;25.73
21574;BME280;10948;48.706;9.258;2023-06-14T08:27:15;97445.25;;;37.55;25.76
21574;BME280;10948;48.706;9.258;2023-06-14T08:29:40;97445.25;;;38.05;25.45
21574;BME280;10948;48.706;9.258;2023-06-14T08:32:06;97452.25;;;38.56;25.25
21574;BME280;10948;48.706;9.258;2023-06-14T08:34:32;97449.00;;;38.54;25.92
21574;BME280;10948;48.706;9.258;2023-06-14T08:36:57;97442.66;;;39.81;25.19
21574;BME280;10948;48.706;9.258;2023-06-14T08:39:23;97452.75;;;40.94;23.58
21574;BME280;10948;48.706;9.258;2023-06-14T08:41:49;97458.69;;;40.21;24.38
21574;BME280;10948;48.706;9.258;2023-06-14T08:44:16;97458.75;;;41.14;24.03
21574;BME280;10948;48.706;9.258;2023-06-14T08:46:41;97458.53;;;41.29;23.28
21574;BME280;10948;48.706;9.258;2023-06-14T08:49:07;97451.31;;;39.88;23.84
21574;BME280;10948;48.706;9.258;2023-06-14T08:51:33;97456.78;;;39.49;24.05
21574;BME280;10948;48.706;9.258;2023-06-14T08:54:02;97457.53;;;39.93;25.10
21574;BME280;10948;48.706;9.258;2023-06-14T08:56:29;97461.00;;;39.27;24.79
21574;BME280;10948;48.706;9.258;2023-06-14T08:58:55;97449.41;;;40.45;24.30
21574;BME280;10948;48.706;9.258;2023-06-14T09:01:21;97466.38;;;41.17;23.81
21574;BME280;10948;48.706;9.258;2023-06-14T09:03:48;97456.16;;;41.23;23.48
21574;BME280;10948;48.706;9.258;2023-06-14T09:06:14;97462.19;;;41.80;24.58
21574;BME280;10948;48.706;9.258;2023-06-14T09:08:42;97456.66;;;41.67;23.21
21574;BME280;10948;48.706;9.258;2023-06-14T09:11:08;97457.19;;;38.29;24.37
21574;BME280;10948;48.706;9.258;2023-06-14T09:13:33;97449.97;;;33.57;30.03
21574;BME280;10948;48.706;9.258;2023-06-14T09:15:59;97445.81;;;33.83;29.81
21574;BME280;10948;48.706;9.258;2023-06-14T09:18:34;97448.78;;;33.37;30.73
21574;BME280;10948;48.706;9.258;2023-06-14T09:20:59;97446.72;;;33.88;30.10
21574;BME280;10948;48.706;9.258;2023-06-14T09:23:25;97445.19;;;32.18;30.51
21574;BME280;10948;48.706;9.258;2023-06-14T09:25:50;97453.84;;;30.86;31.27
21574;BME280;10948;48.706;9.258;2023-06-14T09:28:16;97442.56;;;31.65;31.04
21574;BME280;10948;48.706;9.258;2023-06-14T09:30:41;97445.69;;;32.26;30.23
21574;BME280;10948;48.706;9.258;2023-06-14T09:33:07;97452.25;;;32.93;30.57
21574;BME280;10948;48.706;9.258;2023-06-14T09:35:32;97443.41;;;33.53;31.04
21574;BME280;10948;48.706;9.258;2023-06-14T09:37:57;97441.09;;;31.81;30.40
21574;BME280;10948;48.706;9.258;2023-06-14T09:40:23;97443.53;;;32.17;30.25
21574;BME280;10948;48.706;9.258;2023-06-14T09:42:49;97443.06;;;33.33;29.58
21574;BME280;10948;48.706;9.258;2023-06-14T09:45:15;97448.03;;;33.69;30.31
21574;BME280;10948;48.706;9.258;2023-06-14T09:47:44;97451.25;;;32.59;29.74
21574;BME280;10948;48.706;9.258;2023-06-14T09:50:10;97448.94;;;33.02;29.98
21574;BME280;10948;48.706;9.258;2023-06-14T09:52:36;97448.84;;;32.97;28.03
21574;BME280;10948;48.706;9.258;2023-06-14T09:55:01;97447.75;;;34.20;27.92
21574;BME280;10948;48.706;9.258;2023-06-14T09:57:30;97447.28;;;33.57;28.21
21574;BME280;10948;48.706;9.258;2023-06-14T09:59:58;97446.81;;;32.07;27.88
21574;BME280;10948;48.706;9.258;2023-06-14T10:02:26;97448.34;;;33.00;28.57
21574;BME280;10948;48.706;9.258;2023-06-14T10:04:56;97441.78;;;33.69;29.14
21574;BME280;10948;48.706;9.258;2023-06-14T10:07:23;97446.09;;;33.53;29.07
21574;BME280;10948;48.706;9.258;2023-06-14T10:09:52;97435.06;;;32.59;30.43
21574;BME280;10948;48.706;9.258;2023-06-14T10:12:17;97438.41;;;30.03;33.04
21574;BME280;10948;48.706;9.258;2023-06-14T10:14:49;97445.56;;;30.69;32.44
21574;BME280;10948;48.706;9.258;2023-06-14T10:17:23;97434.44;;;30.48;31.80
21574;BME280;10948;48.706;9.258;2023-06-14T10:20:10;97429.28;;;29.30;33.46
21574;BME280;10948;48.706;9.258;2023-06-14T10:23:13;97430.03;;;29.13;33.09
21574;BME280;10948;48.706;9.258;2023-06-14T10:25:31;97440.78;;;33.14;29.76
21574;BME280;10948;48.706;9.258;2023-06-14T10:30:37;97428.19;;;34.30;28.67
21574;BME280;10948;48.706;9.258;2023-06-14T10:33:06;97432.50;;;33.93;29.74
21574;BME280;10948;48.706;9.258;2023-06-14T10:35:32;97434.94;;;33.94;28.38
21574;BME280;10948;48.706;9.258;2023-06-14T10:38:10;97439.75;;;34.09;29.33
21574;BME280;10948;48.706;9.258;2023-06-14T10:40:36;97431.94;;;32.39;30.21
21574;BME280;10948;48.706;9.258;2023-06-14T10:43:20;97437.56;;;31.28;31.39
21574;BME280;10948;48.706;9.258;2023-06-14T10:48:30;97427.09;;;31.50;31.37
21574;BME280;10948;48.706;9.258;2023-06-14T10:51:02;97430.09;;;29.62;32.60
21574;BME280;10948;48.706;9.258;2023-06-14T10:53:27;97426.25;;;29.76;31.85
21574;BME280;10948;48.706;9.258;2023-06-14T10:55:54;97431.13;;;30.82;31.77
21574;BME280;10948;48.706;9.258;2023-06-14T10:58:21;97423.97;;;34.01;29.62
21574;BME280;10948;48.706;9.258;2023-06-14T11:00:46;97437.25;;;34.78;29.03
21574;BME280;10948;48.706;9.258;2023-06-14T11:05:52;97424.44;;;35.43;28.26
21574;BME280;10948;48.706;9.258;2023-06-14T11:10:58;97424.53;;;35.53;28.60
21574;BME280;10948;48.706;9.258;2023-06-14T11:13:24;97420.06;;;33.03;30.29
21574;BME280;10948;48.706;9.258;2023-06-14T11:15:51;97422.09;;;34.39;28.52
21574;BME280;10948;48.706;9.258;2023-06-14T11:18:18;97417.47;;;33.08;27.66
21574;BME280;10948;48.706;9.258;2023-06-14T11:20:45;97417.22;;;33.37;27.75
21574;BME280;10948;48.706;9.258;2023-06-14T11:23:11;97432.81;;;34.72;29.62
21574;BME280;10948;48.706;9.258;2023-06-14T11:25:36;97430.84;;;35.64;28.56
21574;BME280;10948;48.706;9.258;2023-06-14T11:28:02;97435.31;;;35.00;26.94
21574;BME280;10948;48.706;9.258;2023-06-14T11:30:27;97422.75;;;35.37;27.34
21574;BME280;10948;48.706;9.258;2023-06-14T11:32:53;97428.91;;;35.06;26.53
21574;BME280;10948;48.706;9.258;2023-06-14T11:35:19;97414.88;;;33.90;26.95
21574;BME280;10948;48.706;9.258;2023-06-14T11:37:44;97411.91;;;34.46;27.12
21574;BME280;10948;48.706;9.258;2023-06-14T11:40:10;97421.38;;;33.28;29.47
21574;BME280;10948;48.706;9.258;2023-06-14T11:42:37;97428.19;;;34.89;28.17
21574;BME280;10948;48.706;9.258;2023-06-14T11:45:03;97424.56;;;35.58;27.67
21574;BME280;10948;48.706;9.258;2023-06-14T11:47:33;97426.56;;;35.15;27.37
21574;BME280;10948;48.706;9.258;2023-06-14T11:49:59;97423.00;;;35.62;27.25
21574;BME280;10948;48.706;9.258;2023-06-14T11:52:24;97415.31;;;35.23;28.25
21574;BME280;10948;48.706;9.258;2023-06-14T11:54:50;97416.56;;;35.42;28.99
21574;BME280;10948;48.706;9.258;2023-06-14T11:57:17;97417.91;;;35.39;27.71
21574;BME280;10948;48.706;9.258;2023-06-14T11:59:43;97407.00;;;33.72;26.90
21574;BME280;10948;48.706;9.258;2023-06-14T12:02:09;97403.72;;;34.41;28.00
21574;BME280;10948;48.706;9.258;2023-06-14T12:04:35;97407.06;;;35.13;27.81
21574;BME280;10948;48.706;9.258;2023-06-14T12:07:11;97409.03;;;34.31;28.39
21574;BME280;10948;48.706;9.258;2023-06-14T12:12:21;97405.31;;;31.62;30.73
21574;BME280;10948;48.706;9.258;2023-06-14T12:14:47;97417.88;;;30.51;31.78
21574;BME280;10948;48.706;9.258;2023-06-14T12:17:13;97409.81;;;30.33;31.83
21574;BME280;10948;48.706;9.258;2023-06-14T12:19:42;97409.22;;;31.78;30.95
21574;BME280;10948;48.706;9.258;2023-06-14T12:22:09;97403.81;;;33.14;29.33
21574;BME280;10948;48.706;9.258;2023-06-14T12:24:34;97407.56;;;33.41;29.83
21574;BME280;10948;48.706;9.258;2023-06-14T12:27:00;97402.03;;;32.92;29.08
21574;BME280;10948;48.706;9.258;2023-06-14T12:29:28;97404.31;;;32.83;29.13
21574;BME280;10948;48.706;9.258;2023-06-14T12:31:53;97400.31;;;33.91;29.21
21574;BME280;10948;48.706;9.258;2023-06-14T12:34:21;97401.50;;;34.00;28.26
21574;BME280;10948;48.706;9.258;2023-06-14T12:36:47;97405.44;;;34.09;29.65
21574;BME280;10948;48.706;9.258;2023-06-14T12:39:12;97393.88;;;32.75;30.96
21574;BME280;10948;48.706;9.258;2023-06-14T12:41:38;97404.22;;;32.67;29.61
21574;BME280;10948;48.706;9.258;2023-06-14T12:44:03;97393.38;;;31.58;30.01
21574;BME280;10948;48.706;9.258;2023-06-14T12:46:31;97394.66;;;31.04;31.35
21574;BME280;10948;48.706;9.258;2023-06-14T12:48:57;97393.59;;;31.05;30.00
21574;BME280;10948;48.706;9.258;2023-06-14T12:51:22;97395.81;;;31.08;31.02
21574;BME280;10948;48.706;9.258;2023-06-14T12:53:49;97393.53;;;32.21;31.22
21574;BME280;10948;48.706;9.258;2023-06-14T12:56:15;97394.31;;;32.21;30.38
21574;BME280;10948;48.706;9.258;2023-06-14T12:58:41;97403.53;;;32.99;29.76
21574;BME280;10948;48.706;9.258;2023-06-14T13:01:06;97399.53;;;32.23;30.21
21574;BME280;10948;48.706;9.258;2023-06-14T13:03:32;97406.03;;;33.17;29.39
21574;BME280;10948;48.706;9.258;2023-06-14T13:05:58;97404.31;;;32.83;31.03
21574;BME280;10948;48.706;9.258;2023-06-14T13:08:24;97415.13;;;32.60;29.77
21574;BME280;10948;48.706;9.258;2023-06-14T13:10:49;97411.72;;;32.65;30.27